sensor_id;sensor_type;location;lat;lon;timestamp;P1;durP1;ratioP1;P2;durP2;ratioP2
67344;SDS011;54230;52.402;6.276;2023-05-19T00:00:01;11.7;;;4.1;;
67344;SDS011;54230;52.402;6.276;2023-05-19T00:05:00;11.0;;;4.6;;
67344;SDS011;54230;52.402;6.276;2023-05-19T00:10:00;10.7;;;4.4;;
67344;SDS011;54230;52.402;6.276;2023-05-19T00:15:00;11.5;;;4.4;;
67344;SDS011;54230;52.402;6.276;2023-05-19T00:20:00;10.0;;;4.8;;
67344;SDS011;54230;52.402;6.276;2023-05-19T00:25:00;12.3;;;4.6;;
67344;SDS011;54230;52.402;6.276;2023-05-19T00:30:00;10.9;;;4.6;;
67344;SDS011;54230;52.402;6.276;2023-05-19T00:35:00;9.5;;;4.4;;
67344;SDS011;54230;52.402;6.276;2023-05-19T00:40:00;12.1;;;4.4;;
67344;SDS011;54230;52.402;6.276;2023-05-19T00:45:00;10.7;;;4.4;;
67344;SDS011;54230;52.402;6.276;2023-05-19T00:50:00;11.4;;;4.5;;
67344;SDS011;54230;52.402;6.276;2023-05-19T00:55:00;8.8;;;4.4;;
67344;SDS011;54230;52.402;6.276;2023-05-19T01:00:00;12.0;;;4.7;;
67344;SDS011;54230;52.402;6.276;2023-05-19T01:05:00;8.7;;;4.4;;
67344;SDS011;54230;52.402;6.276;2023-05-19T01:10:00;10.1;;;4.8;;
67344;SDS011;54230;52.402;6.276;2023-05-19T01:15:00;12.3;;;4.6;;
67344;SDS011;54230;52.402;6.276;2023-05-19T01:20:02;11.2;;;4.9;;
67344;SDS011;54230;52.402;6.276;2023-05-19T01:25:06;11.5;;;5.0;;
67344;SDS011;54230;52.402;6.276;2023-05-19T01:35:00;10.5;;;5.1;;
67344;SDS011;54230;52.402;6.276;2023-05-19T01:40:00;12.5;;;5.2;;
67344;SDS011;54230;52.402;6.276;2023-05-19T01:45:00;14.2;;;4.8;;
67344;SDS011;54230;52.402;6.276;2023-05-19T01:50:00;11.4;;;4.9;;
67344;SDS011;54230;52.402;6.276;2023-05-19T01:55:00;12.3;;;4.8;;
67344;SDS011;54230;52.402;6.276;2023-05-19T02:00:02;11.8;;;4.9;;
67344;SDS011;54230;52.402;6.276;2023-05-19T02:05:01;13.7;;;5.1;;
67344;SDS011;54230;52.402;6.276;2023-05-19T02:10:03;12.6;;;4.9;;
67344;SDS011;54230;52.402;6.276;2023-05-19T02:15:02;13.9;;;5.4;;
67344;SDS011;54230;52.402;6.276;2023-05-19T02:20:00;13.1;;;5.5;;
67344;SDS011;54230;52.402;6.276;2023-05-19T02:25:00;13.0;;;5.0;;
67344;SDS011;54230;52.402;6.276;2023-05-19T02:30:00;12.8;;;5.1;;
67344;SDS011;54230;52.402;6.276;2023-05-19T02:35:00;14.0;;;5.3;;
67344;SDS011;54230;52.402;6.276;2023-05-19T02:40:00;12.3;;;5.7;;
67344;SDS011;54230;52.402;6.276;2023-05-19T02:45:00;12.5;;;5.5;;
67344;SDS011;54230;52.402;6.276;2023-05-19T02:50:00;11.5;;;5.0;;
67344;SDS011;54230;52.402;6.276;2023-05-19T02:55:00;12.9;;;5.5;;
67344;SDS011;54230;52.402;6.276;2023-05-19T03:00:00;15.2;;;5.8;;
67344;SDS011;54230;52.402;6.276;2023-05-19T03:05:00;12.8;;;5.6;;
67344;SDS011;54230;52.402;6.276;2023-05-19T03:10:00;14.1;;;5.8;;
67344;SDS011;54230;52.402;6.276;2023-05-19T03:15:00;14.7;;;6.0;;
67344;SDS011;54230;52.402;6.276;2023-05-19T03:20:00;12.9;;;5.7;;
67344;SDS011;54230;52.402;6.276;2023-05-19T03:25:00;13.4;;;5.8;;
67344;SDS011;54230;52.402;6.276;2023-05-19T03:30:00;13.5;;;6.0;;
67344;SDS011;54230;52.402;6.276;2023-05-19T03:35:00;15.8;;;6.0;;
67344;SDS011;54230;52.402;6.276;2023-05-19T03:40:00;14.2;;;6.4;;
67344;SDS011;54230;52.402;6.276;2023-05-19T03:45:00;14.5;;;6.8;;
67344;SDS011;54230;52.402;6.276;2023-05-19T03:50:00;15.3;;;7.3;;
67344;SDS011;54230;52.402;6.276;2023-05-19T03:55:00;20.3;;;7.4;;
67344;SDS011;54230;52.402;6.276;2023-05-19T04:00:00;20.7;;;7.5;;
67344;SDS011;54230;52.402;6.276;2023-05-19T04:05:00;20.4;;;7.6;;
67344;SDS011;54230;52.402;6.276;2023-05-19T04:10:02;19.9;;;7.9;;
67344;SDS011;54230;52.402;6.276;2023-05-19T04:15:00;19.2;;;8.0;;
67344;SDS011;54230;52.402;6.276;2023-05-19T04:20:00;23.7;;;8.3;;
67344;SDS011;54230;52.402;6.276;2023-05-19T04:25:00;21.9;;;8.4;;
67344;SDS011;54230;52.402;6.276;2023-05-19T04:30:00;18.6;;;8.2;;
67344;SDS011;54230;52.402;6.276;2023-05-19T04:35:00;21.7;;;8.1;;
67344;SDS011;54230;52.402;6.276;2023-05-19T04:40:00;23.0;;;8.6;;
67344;SDS011;54230;52.402;6.276;2023-05-19T04:45:00;23.6;;;8.3;;
67344;SDS011;54230;52.402;6.276;2023-05-19T04:50:00;20.2;;;9.0;;
67344;SDS011;54230;52.402;6.276;2023-05-19T04:55:00;20.7;;;8.5;;
67344;SDS011;54230;52.402;6.276;2023-05-19T05:00:00;20.4;;;9.0;;
67344;SDS011;54230;52.402;6.276;2023-05-19T05:05:00;18.6;;;8.9;;
67344;SDS011;54230;52.402;6.276;2023-05-19T05:10:00;23.0;;;9.4;;
67344;SDS011;54230;52.402;6.276;2023-05-19T05:15:00;23.8;;;9.6;;
67344;SDS011;54230;52.402;6.276;2023-05-19T05:20:00;20.4;;;9.2;;
67344;SDS011;54230;52.402;6.276;2023-05-19T05:25:00;20.0;;;8.0;;
67344;SDS011;54230;52.402;6.276;2023-05-19T05:30:00;19.5;;;9.4;;
67344;SDS011;54230;52.402;6.276;2023-05-19T05:35:00;21.2;;;9.5;;
67344;SDS011;54230;52.402;6.276;2023-05-19T05:40:00;19.0;;;8.8;;
67344;SDS011;54230;52.402;6.276;2023-05-19T05:45:00;25.5;;;9.2;;
67344;SDS011;54230;52.402;6.276;2023-05-19T05:50:00;18.8;;;8.4;;
67344;SDS011;54230;52.402;6.276;2023-05-19T05:55:00;17.2;;;8.6;;
67344;SDS011;54230;52.402;6.276;2023-05-19T06:00:00;17.8;;;8.1;;
67344;SDS011;54230;52.402;6.276;2023-05-19T06:05:00;16.9;;;8.6;;
67344;SDS011;54230;52.402;6.276;2023-05-19T06:10:00;18.2;;;8.1;;
67344;SDS011;54230;52.402;6.276;2023-05-19T06:15:01;20.0;;;7.9;;
67344;SDS011;54230;52.402;6.276;2023-05-19T06:20:00;21.3;;;8.9;;
67344;SDS011;54230;52.402;6.276;2023-05-19T06:25:00;18.0;;;8.2;;
67344;SDS011;54230;52.402;6.276;2023-05-19T06:30:00;17.9;;;8.1;;
67344;SDS011;54230;52.402;6.276;2023-05-19T06:35:00;13.5;;;7.0;;
67344;SDS011;54230;52.402;6.276;2023-05-19T06:40:00;15.3;;;7.9;;
67344;SDS011;54230;52.402;6.276;2023-05-19T06:45:00;16.0;;;7.0;;
67344;SDS011;54230;52.402;6.276;2023-05-19T06:50:00;14.5;;;7.3;;
67344;SDS011;54230;52.402;6.276;2023-05-19T06:55:00;17.7;;;7.4;;
67344;SDS011;54230;52.402;6.276;2023-05-19T07:00:00;15.2;;;7.5;;
67344;SDS011;54230;52.402;6.276;2023-05-19T07:05:00;15.2;;;7.5;;
67344;SDS011;54230;52.402;6.276;2023-05-19T07:10:00;13.5;;;6.3;;
67344;SDS011;54230;52.402;6.276;2023-05-19T07:15:00;15.2;;;7.3;;
67344;SDS011;54230;52.402;6.276;2023-05-19T07:20:00;15.5;;;7.0;;
67344;SDS011;54230;52.402;6.276;2023-05-19T07:25:00;13.8;;;6.7;;
67344;SDS011;54230;52.402;6.276;2023-05-19T07:30:00;12.6;;;6.7;;
67344;SDS011;54230;52.402;6.276;2023-05-19T07:35:00;12.4;;;6.1;;
67344;SDS011;54230;52.402;6.276;2023-05-19T07:40:00;17.0;;;6.3;;
67344;SDS011;54230;52.402;6.276;2023-05-19T07:45:00;11.9;;;6.1;;
67344;SDS011;54230;52.402;6.276;2023-05-19T07:50:00;11.3;;;5.5;;
67344;SDS011;54230;52.402;6.276;2023-05-19T07:55:00;13.3;;;6.0;;
67344;SDS011;54230;52.402;6.276;2023-05-19T08:00:00;13.2;;;5.4;;
67344;SDS011;54230;52.402;6.276;2023-05-19T08:05:00;11.3;;;5.1;;
67344;SDS011;54230;52.402;6.276;2023-05-19T08:10:00;11.9;;;5.3;;
67344;SDS011;54230;52.402;6.276;2023-05-19T08:15:00;12.9;;;4.8;;
67344;SDS011;54230;52.402;6.276;2023-05-19T08:20:00;12.9;;;4.7;;
67344;SDS011;54230;52.402;6.276;2023-05-19T08:25:00;13.1;;;4.9;;
67344;SDS011;54230;52.402;6.276;2023-05-19T08:30:00;10.3;;;4.2;;
67344;SDS011;54230;52.402;6.276;2023-05-19T08:35:00;10.7;;;3.8;;
67344;SDS011;54230;52.402;6.276;2023-05-19T08:40:00;10.4;;;3.8;;
67344;SDS011;54230;52.402;6.276;2023-05-19T08:45:00;11.2;;;4.8;;
67344;SDS011;54230;52.402;6.276;2023-05-19T08:50:02;8.6;;;3.5;;
67344;SDS011;54230;52.402;6.276;2023-05-19T08:55:03;10.0;;;3.7;;
67344;SDS011;54230;52.402;6.276;2023-05-19T09:00:00;9.4;;;3.5;;
67344;SDS011;54230;52.402;6.276;2023-05-19T09:05:00;9.0;;;3.3;;
67344;SDS011;54230;52.402;6.276;2023-05-19T09:10:00;7.6;;;2.8;;
67344;SDS011;54230;52.402;6.276;2023-05-19T09:15:00;7.8;;;3.4;;
67344;SDS011;54230;52.402;6.276;2023-05-19T09:20:00;11.3;;;2.9;;
67344;SDS011;54230;52.402;6.276;2023-05-19T09:25:00;12.4;;;3.4;;
67344;SDS011;54230;52.402;6.276;2023-05-19T09:30:05;10.0;;;3.0;;
67344;SDS011;54230;52.402;6.276;2023-05-19T09:35:01;7.0;;;2.7;;
67344;SDS011;54230;52.402;6.276;2023-05-19T09:40:00;8.6;;;2.7;;
67344;SDS011;54230;52.402;6.276;2023-05-19T09:45:00;7.9;;;2.9;;
67344;SDS011;54230;52.402;6.276;2023-05-19T09:50:00;8.9;;;3.1;;
67344;SDS011;54230;52.402;6.276;2023-05-19T09:55:00;12.3;;;2.9;;
67344;SDS011;54230;52.402;6.276;2023-05-19T10:00:01;7.7;;;2.8;;
67344;SDS011;54230;52.402;6.276;2023-05-19T10:05:00;8.4;;;2.9;;
67344;SDS011;54230;52.402;6.276;2023-05-19T10:10:00;8.6;;;2.9;;
67344;SDS011;54230;52.402;6.276;2023-05-19T10:15:00;7.1;;;2.9;;
67344;SDS011;54230;52.402;6.276;2023-05-19T10:20:00;8.6;;;2.5;;
67344;SDS011;54230;52.402;6.276;2023-05-19T10:25:00;7.8;;;2.7;;
67344;SDS011;54230;52.402;6.276;2023-05-19T10:30:01;6.3;;;2.4;;
67344;SDS011;54230;52.402;6.276;2023-05-19T10:35:11;9.8;;;2.8;;
67344;SDS011;54230;52.402;6.276;2023-05-19T10:40:03;7.3;;;2.6;;
67344;SDS011;54230;52.402;6.276;2023-05-19T10:45:01;9.5;;;2.6;;
67344;SDS011;54230;52.402;6.276;2023-05-19T10:50:00;9.1;;;2.9;;
67344;SDS011;54230;52.402;6.276;2023-05-19T10:55:00;8.3;;;2.8;;
67344;SDS011;54230;52.402;6.276;2023-05-19T11:00:01;7.8;;;2.6;;
67344;SDS011;54230;52.402;6.276;2023-05-19T11:05:05;7.3;;;2.5;;
67344;SDS011;54230;52.402;6.276;2023-05-19T11:10:04;8.3;;;2.7;;
67344;SDS011;54230;52.402;6.276;2023-05-19T11:15:00;9.0;;;3.0;;
67344;SDS011;54230;52.402;6.276;2023-05-19T11:20:00;7.4;;;2.3;;
67344;SDS011;54230;52.402;6.276;2023-05-19T11:25:00;6.4;;;2.5;;
67344;SDS011;54230;52.402;6.276;2023-05-19T11:30:00;6.0;;;2.3;;
67344;SDS011;54230;52.402;6.276;2023-05-19T11:35:00;8.2;;;2.5;;
67344;SDS011;54230;52.402;6.276;2023-05-19T11:40:00;7.0;;;2.4;;
67344;SDS011;54230;52.402;6.276;2023-05-19T11:45:00;9.7;;;2.6;;
67344;SDS011;54230;52.402;6.276;2023-05-19T11:50:00;8.2;;;2.6;;
67344;SDS011;54230;52.402;6.276;2023-05-19T11:55:00;17.5;;;3.5;;
67344;SDS011;54230;52.402;6.276;2023-05-19T12:00:00;7.4;;;2.1;;
67344;SDS011;54230;52.402;6.276;2023-05-19T12:05:00;7.4;;;2.5;;
67344;SDS011;54230;52.402;6.276;2023-05-19T12:10:00;7.3;;;2.2;;
67344;SDS011;54230;52.402;6.276;2023-05-19T12:15:01;9.4;;;2.3;;
67344;SDS011;54230;52.402;6.276;2023-05-19T12:20:00;6.7;;;2.4;;
67344;SDS011;54230;52.402;6.276;2023-05-19T12:25:01;7.9;;;2.3;;
67344;SDS011;54230;52.402;6.276;2023-05-19T12:30:00;7.1;;;2.4;;
67344;SDS011;54230;52.402;6.276;2023-05-19T12:35:01;6.5;;;2.2;;
67344;SDS011;54230;52.402;6.276;2023-05-19T12:40:00;11.0;;;2.6;;
67344;SDS011;54230;52.402;6.276;2023-05-19T12:45:01;5.8;;;2.2;;
67344;SDS011;54230;52.402;6.276;2023-05-19T12:50:00;8.5;;;2.5;;
67344;SDS011;54230;52.402;6.276;2023-05-19T12:55:00;9.7;;;2.1;;
67344;SDS011;54230;52.402;6.276;2023-05-19T13:00:01;5.6;;;2.1;;
67344;SDS011;54230;52.402;6.276;2023-05-19T13:05:00;7.0;;;2.2;;
67344;SDS011;54230;52.402;6.276;2023-05-19T13:10:00;5.3;;;2.0;;
67344;SDS011;54230;52.402;6.276;2023-05-19T13:15:00;9.7;;;2.4;;
67344;SDS011;54230;52.402;6.276;2023-05-19T13:20:00;6.4;;;2.3;;
67344;SDS011;54230;52.402;6.276;2023-05-19T13:25:00;6.2;;;2.3;;
67344;SDS011;54230;52.402;6.276;2023-05-19T13:30:00;7.6;;;2.4;;
67344;SDS011;54230;52.402;6.276;2023-05-19T13:35:00;8.5;;;2.7;;
67344;SDS011;54230;52.402;6.276;2023-05-19T13:40:00;8.2;;;2.5;;
67344;SDS011;54230;52.402;6.276;2023-05-19T13:45:00;7.5;;;2.4;;
67344;SDS011;54230;52.402;6.276;2023-05-19T13:50:00;8.5;;;2.4;;
67344;SDS011;54230;52.402;6.276;2023-05-19T13:55:00;6.4;;;2.4;;
67344;SDS011;54230;52.402;6.276;2023-05-19T14:00:00;6.8;;;2.8;;
67344;SDS011;54230;52.402;6.276;2023-05-19T14:05:00;6.1;;;2.7;;
67344;SDS011;54230;52.402;6.276;2023-05-19T14:10:00;8.2;;;2.6;;
67344;SDS011;54230;52.402;6.276;2023-05-19T14:15:00;7.1;;;2.7;;
67344;SDS011;54230;52.402;6.276;2023-05-19T14:20:00;6.3;;;2.5;;
67344;SDS011;54230;52.402;6.276;2023-05-19T14:25:00;7.1;;;2.7;;
67344;SDS011;54230;52.402;6.276;2023-05-19T14:30:00;7.9;;;2.6;;
67344;SDS011;54230;52.402;6.276;2023-05-19T14:35:00;7.3;;;2.8;;
67344;SDS011;54230;52.402;6.276;2023-05-19T14:40:00;7.4;;;2.7;;
67344;SDS011;54230;52.402;6.276;2023-05-19T14:45:00;6.5;;;2.8;;
67344;SDS011;54230;52.402;6.276;2023-05-19T14:50:00;8.8;;;2.5;;
67344;SDS011;54230;52.402;6.276;2023-05-19T14:55:00;8.3;;;2.7;;
67344;SDS011;54230;52.402;6.276;2023-05-19T15:00:00;6.5;;;2.9;;
67344;SDS011;54230;52.402;6.276;2023-05-19T15:05:00;5.5;;;2.5;;
67344;SDS011;54230;52.402;6.276;2023-05-19T15:10:00;5.3;;;2.3;;
67344;SDS011;54230;52.402;6.276;2023-05-19T15:15:00;7.0;;;2.4;;
67344;SDS011;54230;52.402;6.276;2023-05-19T15:20:00;7.9;;;2.5;;
67344;SDS011;54230;52.402;6.276;2023-05-19T15:25:00;8.4;;;2.3;;
67344;SDS011;54230;52.402;6.276;2023-05-19T15:30:00;7.0;;;2.7;;
67344;SDS011;54230;52.402;6.276;2023-05-19T15:35:00;6.2;;;2.2;;
67344;SDS011;54230;52.402;6.276;2023-05-19T15:40:00;5.6;;;2.1;;
67344;SDS011;54230;52.402;6.276;2023-05-19T15:45:00;7.2;;;2.3;;
67344;SDS011;54230;52.402;6.276;2023-05-19T15:50:00;7.0;;;2.2;;
67344;SDS011;54230;52.402;6.276;2023-05-19T15:55:00;6.0;;;2.2;;
67344;SDS011;54230;52.402;6.276;2023-05-19T16:00:00;5.9;;;2.4;;
67344;SDS011;54230;52.402;6.276;2023-05-19T16:05:00;6.4;;;2.7;;
67344;SDS011;54230;52.402;6.276;2023-05-19T16:10:00;5.2;;;2.4;;
67344;SDS011;54230;52.402;6.276;2023-05-19T16:15:00;10.0;;;2.5;;
67344;SDS011;54230;52.402;6.276;2023-05-19T16:20:00;7.5;;;2.7;;
67344;SDS011;54230;52.402;6.276;2023-05-19T16:25:00;7.2;;;2.5;;
67344;SDS011;54230;52.402;6.276;2023-05-19T16:30:00;6.7;;;2.3;;
67344;SDS011;54230;52.402;6.276;2023-05-19T16:35:00;5.9;;;2.2;;
67344;SDS011;54230;52.402;6.276;2023-05-19T16:40:00;6.3;;;2.4;;
67344;SDS011;54230;52.402;6.276;2023-05-19T16:45:00;6.8;;;2.3;;
67344;SDS011;54230;52.402;6.276;2023-05-19T16:50:00;9.2;;;2.6;;
67344;SDS011;54230;52.402;6.276;2023-05-19T16:55:00;6.2;;;2.3;;
67344;SDS011;54230;52.402;6.276;2023-05-19T17:00:00;7.0;;;2.2;;
67344;SDS011;54230;52.402;6.276;2023-05-19T17:05:00;7.1;;;2.1;;
67344;SDS011;54230;52.402;6.276;2023-05-19T17:10:00;7.6;;;2.2;;
67344;SDS011;54230;52.402;6.276;2023-05-19T17:15:00;7.9;;;2.0;;
67344;SDS011;54230;52.402;6.276;2023-05-19T17:20:00;5.7;;;2.2;;
67344;SDS011;54230;52.402;6.276;2023-05-19T17:25:00;5.2;;;2.3;;
67344;SDS011;54230;52.402;6.276;2023-05-19T17:30:00;5.8;;;2.1;;
67344;SDS011;54230;52.402;6.276;2023-05-19T17:35:00;6.9;;;2.1;;
67344;SDS011;54230;52.402;6.276;2023-05-19T17:40:00;10.0;;;2.2;;
67344;SDS011;54230;52.402;6.276;2023-05-19T17:45:00;10.0;;;2.5;;
67344;SDS011;54230;52.402;6.276;2023-05-19T17:50:00;8.7;;;2.0;;
67344;SDS011;54230;52.402;6.276;2023-05-19T17:55:00;6.3;;;2.0;;
67344;SDS011;54230;52.402;6.276;2023-05-19T18:00:00;5.8;;;2.2;;
67344;SDS011;54230;52.402;6.276;2023-05-19T18:05:00;5.7;;;2.0;;
67344;SDS011;54230;52.402;6.276;2023-05-19T18:10:00;6.5;;;2.1;;
67344;SDS011;54230;52.402;6.276;2023-05-19T18:15:00;5.1;;;1.7;;
67344;SDS011;54230;52.402;6.276;2023-05-19T18:20:00;5.2;;;1.8;;
67344;SDS011;54230;52.402;6.276;2023-05-19T18:25:00;7.6;;;1.7;;
67344;SDS011;54230;52.402;6.276;2023-05-19T18:30:00;6.4;;;2.0;;
67344;SDS011;54230;52.402;6.276;2023-05-19T18:35:00;7.4;;;2.1;;
67344;SDS011;54230;52.402;6.276;2023-05-19T18:40:00;7.4;;;2.3;;
67344;SDS011;54230;52.402;6.276;2023-05-19T18:45:00;6.6;;;2.0;;
67344;SDS011;54230;52.402;6.276;2023-05-19T18:50:00;5.6;;;1.8;;
67344;SDS011;54230;52.402;6.276;2023-05-19T18:55:00;6.0;;;2.0;;
67344;SDS011;54230;52.402;6.276;2023-05-19T19:00:00;5.2;;;1.9;;
67344;SDS011;54230;52.402;6.276;2023-05-19T19:05:01;6.5;;;2.0;;
67344;SDS011;54230;52.402;6.276;2023-05-19T19:10:00;6.6;;;2.2;;
67344;SDS011;54230;52.402;6.276;2023-05-19T19:15:00;5.0;;;1.8;;
67344;SDS011;54230;52.402;6.276;2023-05-19T19:20:00;6.1;;;2.2;;
67344;SDS011;54230;52.402;6.276;2023-05-19T19:25:00;4.6;;;2.0;;
67344;SDS011;54230;52.402;6.276;2023-05-19T19:30:00;6.0;;;2.1;;
67344;SDS011;54230;52.402;6.276;2023-05-19T19:35:00;5.8;;;1.9;;
67344;SDS011;54230;52.402;6.276;2023-05-19T19:40:00;7.3;;;2.1;;
67344;SDS011;54230;52.402;6.276;2023-05-19T19:45:00;5.3;;;2.0;;
67344;SDS011;54230;52.402;6.276;2023-05-19T19:50:00;5.4;;;2.1;;
67344;SDS011;54230;52.402;6.276;2023-05-19T19:55:00;7.4;;;2.5;;
67344;SDS011;54230;52.402;6.276;2023-05-19T20:00:00;8.3;;;2.9;;
67344;SDS011;54230;52.402;6.276;2023-05-19T20:05:00;9.6;;;3.2;;
67344;SDS011;54230;52.402;6.276;2023-05-19T20:10:00;9.5;;;3.4;;
67344;SDS011;54230;52.402;6.276;2023-05-19T20:15:00;10.8;;;3.1;;
67344;SDS011;54230;52.402;6.276;2023-05-19T20:20:00;9.7;;;3.1;;
67344;SDS011;54230;52.402;6.276;2023-05-19T20:25:00;9.4;;;3.3;;
67344;SDS011;54230;52.402;6.276;2023-05-19T20:30:00;10.3;;;3.5;;
67344;SDS011;54230;52.402;6.276;2023-05-19T20:35:00;10.2;;;4.2;;
67344;SDS011;54230;52.402;6.276;2023-05-19T20:40:00;10.2;;;3.6;;
67344;SDS011;54230;52.402;6.276;2023-05-19T20:45:00;7.8;;;3.7;;
67344;SDS011;54230;52.402;6.276;2023-05-19T20:50:00;8.7;;;3.7;;
67344;SDS011;54230;52.402;6.276;2023-05-19T20:55:00;8.8;;;3.3;;
67344;SDS011;54230;52.402;6.276;2023-05-19T21:00:00;10.9;;;3.7;;
67344;SDS011;54230;52.402;6.276;2023-05-19T21:05:00;10.0;;;3.4;;
67344;SDS011;54230;52.402;6.276;2023-05-19T21:10:00;9.3;;;3.6;;
67344;SDS011;54230;52.402;6.276;2023-05-19T21:15:00;11.2;;;4.2;;
67344;SDS011;54230;52.402;6.276;2023-05-19T21:20:00;10.2;;;4.2;;
67344;SDS011;54230;52.402;6.276;2023-05-19T21:25:00;12.6;;;4.6;;
67344;SDS011;54230;52.402;6.276;2023-05-19T21:30:00;12.5;;;4.8;;
67344;SDS011;54230;52.402;6.276;2023-05-19T21:35:00;13.6;;;4.8;;
67344;SDS011;54230;52.402;6.276;2023-05-19T21:40:00;11.6;;;4.1;;
67344;SDS011;54230;52.402;6.276;2023-05-19T21:45:00;10.3;;;4.0;;
67344;SDS011;54230;52.402;6.276;2023-05-19T21:50:00;11.7;;;4.2;;
67344;SDS011;54230;52.402;6.276;2023-05-19T21:55:00;9.0;;;3.9;;
67344;SDS011;54230;52.402;6.276;2023-05-19T22:00:00;12.4;;;3.9;;
67344;SDS011;54230;52.402;6.276;2023-05-19T22:05:00;9.3;;;3.9;;
67344;SDS011;54230;52.402;6.276;2023-05-19T22:10:00;10.0;;;4.0;;
67344;SDS011;54230;52.402;6.276;2023-05-19T22:15:00;12.9;;;3.9;;
67344;SDS011;54230;52.402;6.276;2023-05-19T22:20:00;9.2;;;3.9;;
67344;SDS011;54230;52.402;6.276;2023-05-19T22:25:00;11.6;;;3.9;;
67344;SDS011;54230;52.402;6.276;2023-05-19T22:30:00;9.7;;;4.1;;
67344;SDS011;54230;52.402;6.276;2023-05-19T22:35:00;10.8;;;4.0;;
67344;SDS011;54230;52.402;6.276;2023-05-19T22:40:00;11.4;;;4.2;;
67344;SDS011;54230;52.402;6.276;2023-05-19T22:45:00;12.9;;;4.6;;
67344;SDS011;54230;52.402;6.276;2023-05-19T22:50:00;10.0;;;4.1;;
67344;SDS011;54230;52.402;6.276;2023-05-19T22:55:00;10.8;;;4.3;;
67344;SDS011;54230;52.402;6.276;2023-05-19T23:00:00;11.8;;;4.3;;
67344;SDS011;54230;52.402;6.276;2023-05-19T23:05:00;11.7;;;4.3;;
67344;SDS011;54230;52.402;6.276;2023-05-19T23:10:00;10.9;;;4.7;;
67344;SDS011;54230;52.402;6.276;2023-05-19T23:15:00;10.9;;;4.5;;
67344;SDS011;54230;52.402;6.276;2023-05-19T23:20:00;12.1;;;4.3;;
67344;SDS011;54230;52.402;6.276;2023-05-19T23:25:00;12.9;;;4.8;;
67344;SDS011;54230;52.402;6.276;2023-05-19T23:30:00;12.2;;;5.1;;
67344;SDS011;54230;52.402;6.276;2023-05-19T23:35:07;10.5;;;4.7;;
67344;SDS011;54230;52.402;6.276;2023-05-19T23:40:00;12.0;;;4.7;;
67344;SDS011;54230;52.402;6.276;2023-05-19T23:45:00;11.2;;;4.7;;
67344;SDS011;54230;52.402;6.276;2023-05-19T23:50:00;11.1;;;4.6;;
67344;SDS011;54230;52.402;6.276;2023-05-19T23:55:00;11.5;;;4.8;;
